createdAt,value
2022-10-09T00:01:35.076Z,3.10
2022-10-09T00:04:02.374Z,3.13
2022-10-09T00:06:33.345Z,2.90
2022-10-09T00:09:02.267Z,3.03
2022-10-09T00:11:29.495Z,2.97
2022-10-09T00:13:56.966Z,3.28
2022-10-09T00:16:24.623Z,2.80
2022-10-09T00:18:51.824Z,2.90
2022-10-09T00:21:28.345Z,3.10
2022-10-09T00:23:57.009Z,2.95
2022-10-09T00:26:24.736Z,2.80
2022-10-09T00:28:51.741Z,2.75
2022-10-09T00:31:18.679Z,2.80
2022-10-09T00:33:45.568Z,3.05
2022-10-09T00:36:14.773Z,2.85
2022-10-09T00:38:41.739Z,2.83
2022-10-09T00:41:08.900Z,2.50
2022-10-09T00:43:47.535Z,2.67
2022-10-09T00:46:42.661Z,2.80
2022-10-09T00:49:26.625Z,2.83
2022-10-09T00:51:53.572Z,3.00
2022-10-09T00:54:23.067Z,2.35
2022-10-09T00:56:50.113Z,2.85
2022-10-09T00:59:17.274Z,2.80
2022-10-09T01:01:44.333Z,2.17
2022-10-09T01:04:11.293Z,2.75
2022-10-09T01:07:07.390Z,2.88
2022-10-09T01:09:39.518Z,2.35
2022-10-09T01:12:18.025Z,2.45
2022-10-09T01:15:03.815Z,2.63
2022-10-09T01:17:37.890Z,2.72
2022-10-09T01:20:23.121Z,2.60
2022-10-09T01:23:28.777Z,2.60
2022-10-09T01:26:04.023Z,2.13
2022-10-09T01:28:30.852Z,2.22
2022-10-09T01:30:59.452Z,2.30
2022-10-09T01:33:27.627Z,2.47
2022-10-09T01:35:54.447Z,2.20
2022-10-09T01:38:21.202Z,2.40
2022-10-09T01:40:48.040Z,2.30
2022-10-09T01:43:14.784Z,2.33
2022-10-09T01:45:43.390Z,2.30
2022-10-09T01:48:12.841Z,2.25
2022-10-09T01:50:46.399Z,2.13
2022-10-09T01:53:16.161Z,2.17
2022-10-09T01:55:53.588Z,2.25
2022-10-09T01:58:27.017Z,2.05
2022-10-09T02:01:08.836Z,2.00
2022-10-09T02:03:36.427Z,2.25
2022-10-09T02:06:06.732Z,2.25
2022-10-09T02:08:36.551Z,2.00
2022-10-09T02:11:03.726Z,2.10
2022-10-09T02:13:31.370Z,2.03
2022-10-09T02:16:14.858Z,1.98
2022-10-09T02:19:03.698Z,2.10
2022-10-09T02:21:46.301Z,1.80
2022-10-09T02:24:19.465Z,2.17
2022-10-09T02:26:46.259Z,2.10
2022-10-09T02:29:13.605Z,2.83
2022-10-09T02:31:41.250Z,2.03
2022-10-09T02:34:12.547Z,2.10
2022-10-09T02:36:39.609Z,2.28
2022-10-09T02:39:06.808Z,2.50
2022-10-09T02:41:33.646Z,2.30
2022-10-09T02:44:00.510Z,2.00
2022-10-09T02:46:27.363Z,1.92
2022-10-09T02:48:54.223Z,2.10
2022-10-09T02:51:20.959Z,2.13
2022-10-09T02:53:47.763Z,2.10
2022-10-09T02:56:14.581Z,2.33
2022-10-09T02:58:44.299Z,1.83
2022-10-09T03:01:11.126Z,1.88
2022-10-09T03:03:38.222Z,2.15
2022-10-09T03:06:12.914Z,2.05
2022-10-09T03:08:41.201Z,1.88
2022-10-09T03:11:08.233Z,2.00
2022-10-09T03:13:35.022Z,1.90
2022-10-09T03:16:08.901Z,2.30
2022-10-09T03:18:35.972Z,2.00
2022-10-09T03:21:06.701Z,2.28
2022-10-09T03:23:33.609Z,2.38
2022-10-09T03:26:05.451Z,2.00
2022-10-09T03:28:32.265Z,2.03
2022-10-09T03:30:59.278Z,2.15
2022-10-09T03:33:26.140Z,2.05
2022-10-09T03:35:52.873Z,2.03
2022-10-09T03:38:19.714Z,2.47
2022-10-09T03:40:46.445Z,2.03
2022-10-09T03:43:13.270Z,2.22
2022-10-09T03:45:40.779Z,2.00
2022-10-09T03:48:08.259Z,2.00
2022-10-09T03:50:35.100Z,1.90
2022-10-09T03:53:01.932Z,2.00
2022-10-09T03:55:28.745Z,2.13
2022-10-09T03:57:55.667Z,2.25
2022-10-09T04:00:22.624Z,1.88
2022-10-09T04:02:49.614Z,2.20
2022-10-09T04:05:16.795Z,2.25
2022-10-09T04:07:43.615Z,1.90
2022-10-09T04:10:10.505Z,2.05
2022-10-09T04:12:37.418Z,1.92
2022-10-09T04:15:04.862Z,1.95
2022-10-09T04:17:31.667Z,2.05
2022-10-09T04:19:58.794Z,1.75
2022-10-09T04:22:25.599Z,1.95
2022-10-09T04:24:52.439Z,1.90
2022-10-09T04:27:19.399Z,2.05
2022-10-09T04:29:46.163Z,1.90
2022-10-09T04:32:12.898Z,1.90
2022-10-09T04:34:39.794Z,2.00
2022-10-09T04:37:06.578Z,2.00
2022-10-09T04:39:33.332Z,2.20
2022-10-09T04:42:00.115Z,2.00
2022-10-09T04:44:26.935Z,2.00
2022-10-09T04:46:53.646Z,2.20
2022-10-09T04:49:22.998Z,2.17
2022-10-09T04:51:49.760Z,2.33
2022-10-09T04:54:16.586Z,2.03
2022-10-09T04:56:43.415Z,2.20
2022-10-09T04:59:10.209Z,2.40
2022-10-09T05:01:38.440Z,2.25
2022-10-09T05:04:05.516Z,2.30
2022-10-09T05:06:32.379Z,2.42
2022-10-09T05:08:59.145Z,2.22
2022-10-09T05:11:26.268Z,2.65
2022-10-09T05:13:54.528Z,2.53
2022-10-09T05:16:24.973Z,2.80
2022-10-09T05:18:53.468Z,2.67
2022-10-09T05:21:20.603Z,2.70
2022-10-09T05:23:47.649Z,2.92
2022-10-09T05:26:16.972Z,2.97
2022-10-09T05:28:43.740Z,2.80
2022-10-09T05:31:12.509Z,3.20
2022-10-09T05:33:39.356Z,2.70
2022-10-09T05:36:06.408Z,2.90
2022-10-09T05:38:34.562Z,2.92
2022-10-09T05:41:03.028Z,3.10
2022-10-09T05:43:35.827Z,2.70
2022-10-09T05:46:23.807Z,2.70
2022-10-09T05:48:55.210Z,2.92
2022-10-09T05:51:23.758Z,2.80
2022-10-09T05:53:50.759Z,2.97
2022-10-09T05:56:22.758Z,2.70
2022-10-09T05:58:51.268Z,2.88
2022-10-09T06:01:18.973Z,3.15
2022-10-09T06:03:52.917Z,2.88
2022-10-09T06:06:20.538Z,2.70
2022-10-09T06:08:50.142Z,3.38
2022-10-09T06:11:21.716Z,2.97
2022-10-09T06:13:48.763Z,2.90
2022-10-09T06:16:16.301Z,2.90
2022-10-09T06:18:49.448Z,3.00
2022-10-09T06:21:16.882Z,2.80
2022-10-09T06:23:43.800Z,2.80
2022-10-09T06:26:13.847Z,2.92
2022-10-09T06:28:40.867Z,2.75
2022-10-09T06:31:11.612Z,2.47
2022-10-09T06:33:39.766Z,2.60
2022-10-09T06:36:16.585Z,2.38
2022-10-09T06:38:43.463Z,2.42
2022-10-09T06:41:14.576Z,2.78
2022-10-09T06:43:41.672Z,2.60
2022-10-09T06:46:10.405Z,2.60
2022-10-09T06:48:38.058Z,2.50
2022-10-09T06:51:09.669Z,2.60
2022-10-09T06:53:43.990Z,2.70
2022-10-09T06:56:11.052Z,2.58
2022-10-09T06:58:38.489Z,2.70
2022-10-09T07:01:09.198Z,2.50
2022-10-09T07:03:36.680Z,2.60
2022-10-09T07:06:11.386Z,2.65
2022-10-09T07:08:39.333Z,2.70
2022-10-09T07:11:10.046Z,2.80
2022-10-09T07:13:37.073Z,2.60
2022-10-09T07:16:05.141Z,2.70
2022-10-09T07:18:34.082Z,2.35
2022-10-09T07:21:02.353Z,2.50
2022-10-09T07:23:29.900Z,2.33
2022-10-09T07:25:56.918Z,2.40
2022-10-09T07:28:25.032Z,2.17
2022-10-09T07:30:52.007Z,1.80
2022-10-09T07:33:18.970Z,2.38
2022-10-09T07:35:59.956Z,2.30
2022-10-09T07:38:26.869Z,1.90
2022-10-09T07:40:53.971Z,1.80
2022-10-09T07:43:21.022Z,1.75
2022-10-09T07:45:48.093Z,1.98
2022-10-09T07:48:14.986Z,1.80
2022-10-09T07:50:41.846Z,1.77
2022-10-09T07:53:08.859Z,1.60
2022-10-09T07:55:36.299Z,1.83
2022-10-09T07:58:03.123Z,2.22
2022-10-09T08:00:29.943Z,1.70
2022-10-09T08:02:56.809Z,1.90
2022-10-09T08:05:23.662Z,1.60
2022-10-09T08:07:50.441Z,1.88
2022-10-09T08:10:17.406Z,1.70
2022-10-09T08:12:44.234Z,1.60
2022-10-09T08:15:11.294Z,2.22
2022-10-09T08:17:38.140Z,1.73
2022-10-09T08:20:05.974Z,1.58
2022-10-09T08:22:32.965Z,1.33
2022-10-09T08:24:59.756Z,1.77
2022-10-09T08:27:26.670Z,1.60
2022-10-09T08:29:53.449Z,1.98
2022-10-09T08:32:20.362Z,2.13
2022-10-09T08:34:47.511Z,1.83
2022-10-09T08:37:14.430Z,1.77
2022-10-09T08:39:41.218Z,2.22
2022-10-09T08:42:32.370Z,2.22
2022-10-09T08:44:59.204Z,2.40
2022-10-09T08:48:05.839Z,1.90
2022-10-09T08:50:38.134Z,2.47
2022-10-09T08:53:23.189Z,1.95
2022-10-09T08:55:57.149Z,2.00
2022-10-09T08:58:26.845Z,1.95
2022-10-09T09:01:18.957Z,1.92
2022-10-09T09:04:09.770Z,2.00
2022-10-09T09:07:00.816Z,2.40
2022-10-09T09:09:30.459Z,2.30
2022-10-09T09:12:00.281Z,1.90
2022-10-09T09:14:44.318Z,2.30
2022-10-09T09:17:46.568Z,2.33
2022-10-09T09:20:21.203Z,2.38
2022-10-09T09:22:49.208Z,2.40
2022-10-09T09:25:28.396Z,1.95
2022-10-09T09:27:57.593Z,2.53
2022-10-09T09:30:29.601Z,2.15
2022-10-09T09:33:11.839Z,2.10
2022-10-09T09:36:03.686Z,1.85
2022-10-09T09:38:30.534Z,2.17
2022-10-09T09:40:57.366Z,2.67
2022-10-09T09:43:25.594Z,2.00
2022-10-09T09:45:57.430Z,2.10
2022-10-09T09:48:36.070Z,1.52
2022-10-09T09:51:29.128Z,1.98
2022-10-09T09:54:06.900Z,1.73
2022-10-09T09:57:06.896Z,2.55
2022-10-09T09:59:45.124Z,2.50
2022-10-09T10:02:13.087Z,1.83
2022-10-09T10:05:14.327Z,2.17
2022-10-09T10:07:41.164Z,1.80
2022-10-09T10:10:20.966Z,3.28
2022-10-09T10:12:58.042Z,1.90
2022-10-09T10:15:25.997Z,2.10
2022-10-09T10:18:06.538Z,2.22
2022-10-09T10:20:41.538Z,2.13
2022-10-09T10:23:40.931Z,2.17
2022-10-09T10:26:35.923Z,2.10
2022-10-09T10:29:05.940Z,1.77
2022-10-09T10:31:48.525Z,2.25
2022-10-09T10:34:33.057Z,1.95
2022-10-09T10:37:13.877Z,1.92
2022-10-09T10:39:50.072Z,1.70
2022-10-09T10:42:23.521Z,1.83
2022-10-09T10:45:14.274Z,1.80
2022-10-09T10:47:43.114Z,1.77
2022-10-09T10:50:13.726Z,1.70
2022-10-09T10:53:05.827Z,2.08
2022-10-09T10:55:52.852Z,1.98
2022-10-09T10:58:23.591Z,2.55
2022-10-09T11:01:09.608Z,2.38
2022-10-09T11:04:01.490Z,1.90
2022-10-09T11:06:37.758Z,2.07
2022-10-09T11:09:16.955Z,1.98
2022-10-09T11:11:48.634Z,1.98
2022-10-09T11:14:49.714Z,2.50
2022-10-09T11:17:26.401Z,2.50
2022-10-09T11:19:53.188Z,2.42
2022-10-09T11:22:27.164Z,1.85
2022-10-09T11:25:10.371Z,2.13
2022-10-09T11:27:53.647Z,2.40
2022-10-09T11:30:20.600Z,1.90
2022-10-09T11:32:56.387Z,2.60
2022-10-09T11:35:24.644Z,2.05
2022-10-09T11:38:20.494Z,1.80
2022-10-09T11:40:47.593Z,2.00
2022-10-09T11:43:26.829Z,1.98
2022-10-09T11:46:28.754Z,2.22
2022-10-09T11:49:18.923Z,2.07
2022-10-09T11:52:01.588Z,2.00
2022-10-09T11:54:28.638Z,2.13
2022-10-09T11:56:59.926Z,1.80
2022-10-09T11:59:30.591Z,1.80
2022-10-09T12:02:01.731Z,2.00
2022-10-09T12:04:50.542Z,2.50
2022-10-09T12:07:46.040Z,2.10
2022-10-09T12:10:27.293Z,1.75
2022-10-09T12:13:02.050Z,2.10
2022-10-09T12:15:39.345Z,1.58
2022-10-09T12:18:19.361Z,1.85
2022-10-09T12:20:46.514Z,1.98
2022-10-09T12:23:26.102Z,1.98
2022-10-09T12:25:54.381Z,1.60
2022-10-09T12:28:43.697Z,1.88
2022-10-09T12:31:23.555Z,1.88
2022-10-09T12:33:55.968Z,1.95
2022-10-09T12:36:24.732Z,1.52
2022-10-09T12:38:51.561Z,1.75
2022-10-09T12:41:30.221Z,1.60
2022-10-09T12:43:57.346Z,1.80
2022-10-09T12:46:34.962Z,1.65
2022-10-09T12:49:03.615Z,1.67
2022-10-09T12:51:31.752Z,1.50
2022-10-09T12:53:58.947Z,1.98
2022-10-09T12:56:30.102Z,1.58
2022-10-09T12:58:57.133Z,1.45
2022-10-09T13:01:24.048Z,1.73
2022-10-09T13:03:58.799Z,1.50
2022-10-09T13:06:49.875Z,1.58
2022-10-09T13:09:28.067Z,1.50
2022-10-09T13:12:22.363Z,1.30
2022-10-09T13:14:53.159Z,1.98
2022-10-09T13:22:53.399Z,1.65
2022-10-09T13:25:20.204Z,1.98
2022-10-09T13:27:47.416Z,2.10
2022-10-09T13:30:14.458Z,2.05
2022-10-09T13:32:41.403Z,2.40
2022-10-09T13:35:08.631Z,2.30
2022-10-09T13:37:36.887Z,1.90
2022-10-09T13:40:05.820Z,1.77
2022-10-09T13:42:36.595Z,1.50
2022-10-09T13:45:04.961Z,2.00
2022-10-09T13:47:31.930Z,1.80
2022-10-09T13:49:59.056Z,1.80
2022-10-09T13:52:26.142Z,1.70
2022-10-09T13:54:53.015Z,1.60
2022-10-09T13:57:19.800Z,1.40
2022-10-09T13:59:46.752Z,1.42
2022-10-09T14:02:14.933Z,1.70
2022-10-09T14:04:42.005Z,1.70
2022-10-09T14:07:09.144Z,1.60
2022-10-09T14:09:36.159Z,1.85
2022-10-09T14:12:02.999Z,1.65
2022-10-09T14:14:29.937Z,2.20
2022-10-09T14:16:56.906Z,1.50
2022-10-09T14:19:27.454Z,1.90
2022-10-09T14:21:57.296Z,2.00
2022-10-09T14:24:24.573Z,2.30
2022-10-09T14:26:51.955Z,1.70
2022-10-09T14:29:19.078Z,1.77
2022-10-09T14:31:46.151Z,2.10
2022-10-09T14:34:13.760Z,1.58
2022-10-09T14:36:42.001Z,1.90
2022-10-09T14:39:09.255Z,2.05
2022-10-09T14:41:37.924Z,1.80
2022-10-09T14:44:05.775Z,1.70
2022-10-09T14:46:37.634Z,1.90
2022-10-09T14:49:07.455Z,1.83
2022-10-09T14:51:37.032Z,1.65
2022-10-09T14:54:04.681Z,1.60
2022-10-09T14:56:31.697Z,1.50
2022-10-09T14:59:00.278Z,1.52
2022-10-09T15:01:27.197Z,1.48
2022-10-09T15:03:54.115Z,1.65
2022-10-09T15:06:24.173Z,2.70
2022-10-09T15:09:04.551Z,1.85
2022-10-09T15:11:33.071Z,1.70
2022-10-09T15:13:59.885Z,1.88
2022-10-09T15:16:26.761Z,1.50
2022-10-09T15:18:54.286Z,1.73
2022-10-09T15:21:22.954Z,1.50
2022-10-09T15:23:50.465Z,1.80
2022-10-09T15:26:17.372Z,1.50
2022-10-09T15:28:44.867Z,2.22
2022-10-09T15:31:28.939Z,1.60
2022-10-09T15:33:57.358Z,2.13
2022-10-09T15:36:24.295Z,1.80
2022-10-09T15:38:51.122Z,1.95
2022-10-09T15:41:25.564Z,1.73
2022-10-09T15:43:54.171Z,1.90
2022-10-09T15:46:20.995Z,1.88
2022-10-09T15:48:47.969Z,1.60
2022-10-09T15:51:14.903Z,1.50
2022-10-09T15:53:42.558Z,1.88
2022-10-09T15:56:10.174Z,2.30
2022-10-09T15:58:37.061Z,2.25
2022-10-09T16:01:08.901Z,2.00
2022-10-09T16:03:37.233Z,1.92
2022-10-09T16:06:05.945Z,1.85
2022-10-09T16:08:32.941Z,2.28
2022-10-09T16:11:00.003Z,2.10
2022-10-09T16:13:27.907Z,1.90
2022-10-09T16:15:54.743Z,2.00
2022-10-09T16:18:22.670Z,1.55
2022-10-09T16:20:49.756Z,1.50
2022-10-09T16:23:17.111Z,1.88
2022-10-09T16:25:44.063Z,1.88
2022-10-09T16:28:11.637Z,1.40
2022-10-09T16:30:39.858Z,1.42
2022-10-09T16:33:11.600Z,1.40
2022-10-09T16:35:39.439Z,1.88
2022-10-09T16:38:06.505Z,1.52
2022-10-09T16:40:57.148Z,1.40
2022-10-09T16:43:20.570Z,1.25
2022-10-09T16:45:47.387Z,1.70
2022-10-09T16:48:14.233Z,1.45
2022-10-09T16:50:41.760Z,1.50
2022-10-09T16:53:08.607Z,2.60
2022-10-09T16:55:35.470Z,2.58
2022-10-09T16:58:02.566Z,2.00
2022-10-09T17:00:29.515Z,1.83
2022-10-09T17:02:57.033Z,2.05
2022-10-09T17:05:25.463Z,2.03
2022-10-09T17:07:52.607Z,2.20
2022-10-09T17:10:19.708Z,2.50
2022-10-09T17:12:46.616Z,2.45
2022-10-09T17:15:13.573Z,2.20
2022-10-09T17:17:40.980Z,2.20
2022-10-09T17:20:08.390Z,2.33
2022-10-09T17:22:35.282Z,2.08
2022-10-09T17:25:02.608Z,2.55
2022-10-09T17:27:29.640Z,3.25
2022-10-09T17:29:56.520Z,7.57
2022-10-09T17:32:23.462Z,11.52
2022-10-09T17:34:51.107Z,15.05
2022-10-09T17:37:18.044Z,11.05
2022-10-09T17:39:48.540Z,8.02
2022-10-09T17:42:18.091Z,7.00
2022-10-09T17:44:44.850Z,4.32
2022-10-09T17:47:11.814Z,4.30
2022-10-09T17:49:38.849Z,3.20
2022-10-09T17:52:05.737Z,2.80
2022-10-09T17:54:32.513Z,2.58
2022-10-09T17:57:01.248Z,3.17
2022-10-09T17:59:28.140Z,2.90
2022-10-09T18:01:55.027Z,2.85
2022-10-09T18:04:22.069Z,2.70
2022-10-09T18:06:49.050Z,2.50
2022-10-09T18:09:15.978Z,2.50
2022-10-09T18:11:43.008Z,2.58
2022-10-09T18:14:10.323Z,2.33
2022-10-09T18:16:38.399Z,2.50
2022-10-09T18:19:13.377Z,2.40
2022-10-09T18:21:41.935Z,2.58
2022-10-09T18:24:08.879Z,2.25
2022-10-09T18:26:36.056Z,2.42
2022-10-09T18:29:03.311Z,2.22
2022-10-09T18:31:30.264Z,2.50
2022-10-09T18:33:58.656Z,2.40
2022-10-09T18:36:30.782Z,2.47
2022-10-09T18:39:03.515Z,3.05
2022-10-09T18:41:30.409Z,2.78
2022-10-09T18:43:59.825Z,2.47
2022-10-09T18:46:27.105Z,3.05
2022-10-09T18:48:54.124Z,3.15
2022-10-09T18:51:22.179Z,3.85
2022-10-09T18:53:50.969Z,4.60
2022-10-09T18:56:19.294Z,4.40
2022-10-09T18:58:46.478Z,4.53
2022-10-09T19:01:13.267Z,4.18
2022-10-09T19:03:45.898Z,4.03
2022-10-09T19:06:16.474Z,3.85
2022-10-09T19:08:43.815Z,3.38
2022-10-09T19:11:12.278Z,3.55
2022-10-09T19:13:39.122Z,3.53
2022-10-09T19:16:06.275Z,2.97
2022-10-09T19:18:35.096Z,3.63
2022-10-09T19:21:02.247Z,3.25
2022-10-09T19:23:29.472Z,3.40
2022-10-09T19:25:57.545Z,3.45
2022-10-09T19:28:25.584Z,3.30
2022-10-09T19:30:52.585Z,3.40
2022-10-09T19:33:19.694Z,3.60
2022-10-09T19:35:52.498Z,3.35
2022-10-09T19:38:19.657Z,3.72
2022-10-09T19:40:46.798Z,3.83
2022-10-09T19:43:13.832Z,3.80
2022-10-09T19:45:40.781Z,3.78
2022-10-09T19:48:07.734Z,4.00
2022-10-09T19:50:35.289Z,3.70
2022-10-09T19:53:03.201Z,3.78
2022-10-09T19:55:33.213Z,3.13
2022-10-09T19:58:00.588Z,3.78
2022-10-09T20:00:27.807Z,3.80
2022-10-09T20:02:54.654Z,3.80
2022-10-09T20:05:22.328Z,3.90
2022-10-09T20:07:49.671Z,4.50
2022-10-09T20:10:16.687Z,4.63
2022-10-09T20:12:43.650Z,3.72
2022-10-09T20:15:10.676Z,4.40
2022-10-09T20:17:37.522Z,5.90
2022-10-09T20:20:05.050Z,5.32
2022-10-09T20:22:31.859Z,5.10
2022-10-09T20:24:58.776Z,5.00
2022-10-09T20:27:25.672Z,4.68
2022-10-09T20:29:53.198Z,4.95
2022-10-09T20:32:20.194Z,4.53
2022-10-09T20:34:47.267Z,4.78
2022-10-09T20:37:14.045Z,4.80
2022-10-09T20:39:40.929Z,4.65
2022-10-09T20:42:07.825Z,4.10
2022-10-09T20:44:34.659Z,3.50
2022-10-09T20:47:01.907Z,3.92
2022-10-09T20:49:29.047Z,3.80
2022-10-09T20:51:56.876Z,3.90
2022-10-09T20:54:23.834Z,4.03
2022-10-09T20:56:50.825Z,3.75
2022-10-09T20:59:18.164Z,3.80
2022-10-09T21:01:45.357Z,3.83
2022-10-09T21:04:12.339Z,3.80
2022-10-09T21:06:39.362Z,3.97
2022-10-09T21:09:06.184Z,4.07
2022-10-09T21:11:34.738Z,4.68
2022-10-09T21:14:02.669Z,4.00
2022-10-09T21:16:29.627Z,4.13
2022-10-09T21:19:00.931Z,4.00
2022-10-09T21:21:28.099Z,3.88
2022-10-09T21:23:57.513Z,3.60
2022-10-09T21:26:24.702Z,3.53
2022-10-09T21:28:56.799Z,3.80
2022-10-09T21:31:28.388Z,3.65
2022-10-09T21:33:55.393Z,3.67
2022-10-09T21:37:08.815Z,3.55
2022-10-09T21:39:33.657Z,3.60
2022-10-09T21:42:00.577Z,4.00
2022-10-09T21:44:27.642Z,3.53
2022-10-09T21:46:54.600Z,3.85
2022-10-09T21:49:23.370Z,3.83
2022-10-09T21:51:50.335Z,3.50
2022-10-09T21:54:17.258Z,3.55
2022-10-09T21:56:44.105Z,3.35
2022-10-09T21:59:11.054Z,3.35
2022-10-09T22:01:37.951Z,3.50
2022-10-09T22:04:04.867Z,3.30
2022-10-09T22:06:31.883Z,3.33
2022-10-09T22:08:59.630Z,3.15
2022-10-09T22:11:26.704Z,3.53
2022-10-09T22:13:55.200Z,3.25
2022-10-09T22:16:22.027Z,3.58
2022-10-09T22:18:48.914Z,3.50
2022-10-09T22:21:16.290Z,3.22
2022-10-09T22:23:43.298Z,3.13
2022-10-09T22:26:17.160Z,4.45
2022-10-09T22:28:45.006Z,3.15
2022-10-09T22:31:20.077Z,3.30
2022-10-09T22:33:57.282Z,2.90
2022-10-09T22:36:25.531Z,3.00
2022-10-09T22:38:56.917Z,2.92
2022-10-09T22:41:24.172Z,2.97
2022-10-09T22:43:53.912Z,3.50
2022-10-09T22:46:25.712Z,2.75
2022-10-09T22:48:52.567Z,3.05
2022-10-09T22:51:20.122Z,3.08
2022-10-09T22:53:47.115Z,3.03
2022-10-09T22:56:22.225Z,2.90
2022-10-09T22:58:49.660Z,2.92
2022-10-09T23:01:19.265Z,3.05
2022-10-09T23:03:46.158Z,3.30
2022-10-09T23:06:14.707Z,3.10
2022-10-09T23:08:43.248Z,2.97
2022-10-09T23:11:10.531Z,2.97
2022-10-09T23:13:37.535Z,3.30
2022-10-09T23:16:05.077Z,3.17
2022-10-09T23:18:32.625Z,2.72
2022-10-09T23:21:02.769Z,3.10
2022-10-09T23:23:29.836Z,2.95
2022-10-09T23:25:56.885Z,2.70
2022-10-09T23:28:23.882Z,2.92
2022-10-09T23:30:50.761Z,4.05
2022-10-09T23:33:17.508Z,2.80
2022-10-09T23:35:44.394Z,3.10
2022-10-09T23:38:11.218Z,2.70
2022-10-09T23:40:38.141Z,2.95
2022-10-09T23:43:04.955Z,3.10
2022-10-09T23:45:31.918Z,3.22
2022-10-09T23:47:58.749Z,2.40
2022-10-09T23:50:25.567Z,2.92
2022-10-09T23:52:52.632Z,2.78
2022-10-09T23:55:19.798Z,2.42
2022-10-09T23:57:46.643Z,2.80
